Time;durP1;ratioP1;P1;durP2;ratioP2;P2;SDS_P1;SDS_P2;PMS_P1;PMS_P2;Temp;Humidity;BMP_temperature;BMP_pressure;BME280_temperature;BME280_humidity;BME280_pressure;Samples;Min_cycle;Max_cycle;Signal;HPM_P1;HPM_P2
2022/04/06 00:01:13;;;;;;;3.78;2.33;;;22.80;40.00;;;;;;6161017;28;80643;-69
2022/04/06 00:08:16;;;;;;;3.80;2.15;;;22.80;40.00;;;;;;6140740;28;82093;-70
2022/04/06 00:15:20;;;;;;;2.40;1.95;;;22.80;40.00;;;;;;6069095;28;80755;-69
2022/04/06 00:18:21;;;;;;;3.55;2.13;;;22.80;40.00;;;;;;6089629;28;81782;-69
2022/04/06 00:21:33;;;;;;;;;;;;;;;;;;;;;
2022/04/06 00:25:39;;;;;;;2.03;1.80;;;22.80;39.90;;;;;;6111458;28;81147;-69
2022/04/06 00:28:40;;;;;;;2.42;1.70;;;22.80;39.90;;;;;;6160424;28;83603;-70
2022/04/06 00:31:40;;;;;;;1.90;1.63;;;22.80;39.90;;;;;;6159387;28;80244;-69
2022/04/06 00:38:00;;;;;;;2.55;1.73;;;22.80;39.90;;;;;;6160743;28;81654;-69
2022/04/06 00:41:01;;;;;;;2.03;1.65;;;22.90;40.00;;;;;;6160673;28;87675;-70
2022/04/06 00:44:01;;;;;;;3.05;1.90;;;22.80;39.90;;;;;;6160854;28;80296;-69
2022/04/06 00:47:05;;;;;;;1.63;1.30;;;22.80;40.00;;;;;;6146641;28;80279;-68
2022/04/06 00:50:05;;;;;;;2.83;1.95;;;22.80;39.90;;;;;;6142127;28;80841;-68
2022/04/06 00:53:06;;;;;;;3.00;1.98;;;22.80;39.90;;;;;;6160062;28;81791;-68
2022/04/06 00:56:06;;;;;;;2.17;1.65;;;22.80;39.90;;;;;;6160587;28;80434;-68
2022/04/06 00:59:07;;;;;;;2.35;1.55;;;22.80;40.00;;;;;;6160473;28;80377;-69
2022/04/06 01:02:07;;;;;;;1.63;1.52;;;22.80;40.10;;;;;;6144255;28;81164;-69
2022/04/06 01:05:08;;;;;;;2.08;1.60;;;22.80;40.00;;;;;;6140537;28;80352;-68
2022/04/06 01:08:08;;;;;;;2.28;1.70;;;22.80;40.10;;;;;;6160221;28;80355;-69
2022/04/06 01:11:09;;;;;;;1.58;1.48;;;22.80;40.70;;;;;;6141936;28;83150;-69
2022/04/06 01:14:09;;;;;;;1.77;1.45;;;22.80;39.90;;;;;;6159892;28;80604;-70
2022/04/06 01:17:10;;;;;;;1.73;1.42;;;22.80;40.00;;;;;;6156896;28;80626;-69
2022/04/06 01:20:11;;;;;;;1.85;1.52;;;22.80;40.60;;;;;;6159286;28;81784;-68
2022/04/06 01:23:12;;;;;;;1.75;1.50;;;22.80;39.90;;;;;;6160101;28;80407;-69
2022/04/06 01:26:12;;;;;;;2.08;1.63;;;22.80;39.80;;;;;;6159847;28;80471;-69
2022/04/06 01:29:13;;;;;;;1.85;1.48;;;22.80;39.80;;;;;;6154233;28;80566;-69
2022/04/06 01:32:13;;;;;;;1.70;1.60;;;22.80;39.90;;;;;;6135891;28;80439;-69
2022/04/06 01:35:14;;;;;;;1.60;1.40;;;22.80;39.70;;;;;;6135648;28;80611;-69
2022/04/06 01:38:14;;;;;;;2.00;1.70;;;22.80;40.00;;;;;;6159778;28;81576;-70
2022/04/06 01:41:15;;;;;;;2.08;1.35;;;22.80;40.10;;;;;;6140289;28;83680;-70
2022/04/06 01:44:16;;;;;;;1.50;1.35;;;22.80;40.00;;;;;;6133770;28;81730;-68
2022/04/06 01:47:16;;;;;;;1.42;1.33;;;22.80;39.80;;;;;;6149832;28;80251;-68
2022/04/06 01:53:36;;;;;;;2.20;1.65;;;22.70;39.90;;;;;;6159703;28;80284;-68
2022/04/06 01:56:36;;;;;;;1.85;1.45;;;22.70;39.80;;;;;;6157270;28;84860;-71
2022/04/06 01:59:37;;;;;;;1.85;1.52;;;22.70;40.00;;;;;;6118293;28;80278;-68
2022/04/06 02:02:37;;;;;;;2.08;1.40;;;22.70;39.90;;;;;;6153294;28;80792;-67
2022/04/06 02:05:38;;;;;;;1.30;1.13;;;22.70;39.90;;;;;;6141436;28;80707;-69
2022/04/06 02:08:38;;;;;;;2.38;1.85;;;22.70;40.10;;;;;;6158630;28;80663;-69
2022/04/06 02:11:39;;;;;;;1.67;1.40;;;22.70;40.30;;;;;;6158608;28;81625;-69
2022/04/06 02:14:39;;;;;;;1.85;1.40;;;22.70;40.30;;;;;;6159002;28;80431;-71
2022/04/06 02:17:40;;;;;;;1.75;1.60;;;22.70;40.20;;;;;;6136624;28;83455;-70
2022/04/06 02:20:40;;;;;;;2.08;1.63;;;22.70;40.30;;;;;;6125279;28;82701;-73
2022/04/06 02:23:41;;;;;;;1.60;1.38;;;22.70;40.10;;;;;;6141259;28;87552;-73
2022/04/06 02:26:41;;;;;;;1.45;1.35;;;22.70;40.20;;;;;;6157955;28;80473;-72
2022/04/06 02:29:42;;;;;;;1.50;1.40;;;22.70;40.30;;;;;;6159500;28;80958;-73
2022/04/06 02:32:43;;;;;;;1.50;1.40;;;22.70;40.10;;;;;;6159560;28;80336;-73
2022/04/06 02:35:43;;;;;;;1.98;1.50;;;22.70;40.10;;;;;;6159614;28;80524;-73
2022/04/06 02:38:44;;;;;;;2.13;1.50;;;22.70;40.30;;;;;;6159430;28;80291;-72
2022/04/06 02:41:44;;;;;;;1.30;1.20;;;22.70;40.20;;;;;;6158980;28;80951;-72
2022/04/06 02:44:45;;;;;;;2.80;1.70;;;22.70;40.30;;;;;;6140927;28;81086;-73
2022/04/06 02:47:45;;;;;;;3.17;1.40;;;22.70;40.10;;;;;;6158700;28;80507;-73
2022/04/06 02:50:46;;;;;;;1.67;1.40;;;22.70;40.00;;;;;;6141532;28;81779;-72
2022/04/06 02:53:47;;;;;;;1.50;1.40;;;22.70;40.30;;;;;;6160921;28;80950;-72
2022/04/06 02:56:48;;;;;;;1.42;1.30;;;22.70;40.20;;;;;;6163083;28;80572;-73
2022/04/06 02:59:49;;;;;;;2.42;1.55;;;22.70;40.30;;;;;;6162292;28;80503;-73
2022/04/06 03:02:50;;;;;;;2.55;1.50;;;22.70;40.20;;;;;;6162030;28;80397;-73
2022/04/06 03:05:50;;;;;;;1.45;1.35;;;22.70;40.20;;;;;;6162157;28;80777;-71
2022/04/06 03:08:51;;;;;;;1.15;1.08;;;22.70;40.30;;;;;;6164528;28;80778;-71
2022/04/06 03:11:51;;;;;;;1.33;1.15;;;22.70;40.40;;;;;;6137881;28;81168;-70
2022/04/06 03:14:52;;;;;;;1.63;1.48;;;22.70;40.30;;;;;;6142374;28;83628;-71
2022/04/06 03:17:52;;;;;;;1.30;1.20;;;22.80;40.00;;;;;;6140848;28;80763;-71
2022/04/06 03:20:52;;;;;;;2.38;1.52;;;22.80;39.90;;;;;;6138522;28;80676;-71
2022/04/06 03:23:53;;;;;;;1.55;1.45;;;22.80;39.70;;;;;;6138066;28;80618;-71
2022/04/06 03:26:54;;;;;;;1.40;1.30;;;22.80;39.60;;;;;;6123027;28;80348;-70
2022/04/06 03:29:54;;;;;;;1.60;1.48;;;22.90;39.60;;;;;;6140076;28;80777;-68
2022/04/06 03:32:55;;;;;;;1.77;1.48;;;22.90;39.50;;;;;;6126198;28;80649;-71
2022/04/06 03:35:55;;;;;;;1.75;1.40;;;22.90;39.50;;;;;;6139606;28;80885;-70
2022/04/06 03:38:56;;;;;;;1.95;1.38;;;22.90;39.50;;;;;;6137226;28;81646;-69
2022/04/06 03:41:57;;;;;;;1.83;1.50;;;23.00;39.70;;;;;;6137424;28;80453;-69
2022/04/06 03:44:57;;;;;;;1.85;1.50;;;23.00;39.70;;;;;;6121564;28;80789;-69
2022/04/06 03:47:57;;;;;;;1.73;1.60;;;23.00;39.80;;;;;;6118589;28;80638;-70
2022/04/06 03:50:58;;;;;;;1.88;1.30;;;23.00;39.80;;;;;;6119810;28;81341;-71
2022/04/06 03:53:59;;;;;;;1.30;1.20;;;23.10;39.90;;;;;;6128870;28;80347;-70
2022/04/06 03:57:00;;;;;;;1.40;1.27;;;23.10;39.70;;;;;;6136780;28;80873;-69
2022/04/06 04:00:04;;;;;;;1.48;1.25;;;23.10;40.30;;;;;;6136461;28;80764;-71
2022/04/06 04:03:06;;;;;;;1.48;1.38;;;23.10;39.60;;;;;;6142043;28;80186;-70
2022/04/06 04:06:07;;;;;;;1.75;1.48;;;23.10;39.60;;;;;;6136273;28;80924;-73
2022/04/06 04:09:07;;;;;;;1.55;1.40;;;23.10;39.60;;;;;;6136483;28;81651;-71
2022/04/06 04:12:08;;;;;;;1.50;1.40;;;23.20;39.80;;;;;;6133209;28;80813;-69
2022/04/06 04:15:08;;;;;;;1.58;1.38;;;23.20;39.70;;;;;;6127698;28;81505;-72
2022/04/06 04:18:09;;;;;;;2.00;1.52;;;23.20;39.70;;;;;;6137079;28;80854;-70
2022/04/06 04:24:28;;;;;;;2.13;1.77;;;23.20;40.50;;;;;;6159565;28;80970;-69
2022/04/06 04:27:29;;;;;;;3.47;1.20;;;23.20;40.30;;;;;;6159762;28;83977;-75
2022/04/06 04:30:30;;;;;;;2.17;1.48;;;23.20;40.90;;;;;;6159624;28;80266;-72
2022/04/06 04:33:31;;;;;;;2.05;1.40;;;23.20;40.90;;;;;;6151726;28;81022;-72
2022/04/06 04:36:32;;;;;;;2.92;1.48;;;23.20;41.40;;;;;;6142196;28;80852;-72
2022/04/06 04:39:32;;;;;;;3.42;1.30;;;23.30;41.60;;;;;;6150128;28;80509;-72
2022/04/06 04:42:33;;;;;;;1.45;1.30;;;23.30;41.70;;;;;;6146076;28;80192;-70
2022/04/06 04:45:34;;;;;;;1.38;1.20;;;23.30;41.70;;;;;;6157264;28;80322;-72
2022/04/06 04:48:34;;;;;;;1.40;1.20;;;23.40;41.80;;;;;;6160490;28;80802;-70
2022/04/06 04:51:35;;;;;;;1.25;1.15;;;23.40;41.50;;;;;;6156527;28;80396;-69
2022/04/06 04:54:36;;;;;;;2.05;1.40;;;23.40;42.20;;;;;;6136345;28;80832;-68
2022/04/06 04:57:36;;;;;;;2.50;1.52;;;23.40;42.20;;;;;;6140078;28;80365;-69
2022/04/06 05:00:37;;;;;;;1.67;1.50;;;23.50;42.30;;;;;;6159864;28;81826;-70
2022/04/06 05:03:37;;;;;;;2.83;1.60;;;23.50;42.30;;;;;;6150920;28;80481;-71
2022/04/06 05:06:38;;;;;;;2.05;1.30;;;23.50;42.10;;;;;;6160210;28;80297;-69
2022/04/06 05:09:38;;;;;;;1.58;1.27;;;23.50;42.30;;;;;;6160080;28;80601;-70
2022/04/06 05:12:39;;;;;;;3.10;1.67;;;23.50;42.40;;;;;;6158439;28;80686;-70
2022/04/06 05:15:39;;;;;;;4.25;1.63;;;23.50;42.60;;;;;;6159844;28;81187;-67
2022/04/06 05:18:40;;;;;;;1.80;1.45;;;23.50;42.70;;;;;;6158976;28;80568;-71
2022/04/06 05:21:40;;;;;;;2.50;1.38;;;23.50;42.60;;;;;;6148226;28;80164;-72
2022/04/06 05:24:41;;;;;;;7.40;1.67;;;23.50;42.50;;;;;;6159458;28;80724;-70
2022/04/06 05:27:41;;;;;;;2.10;1.60;;;23.50;42.40;;;;;;6149175;28;82775;-75
2022/04/06 05:30:42;;;;;;;1.98;1.50;;;23.50;42.60;;;;;;6135571;28;81998;-68
2022/04/06 05:33:43;;;;;;;1.42;1.33;;;23.60;42.30;;;;;;6118178;28;81627;-69
2022/04/06 05:36:43;;;;;;;2.75;1.20;;;23.60;42.00;;;;;;6136172;28;80515;-68
2022/04/06 05:39:44;;;;;;;1.65;1.45;;;23.60;41.90;;;;;;6136140;28;81001;-71
2022/04/06 05:42:44;;;;;;;4.30;1.60;;;23.50;41.90;;;;;;6152393;28;80540;-73
2022/04/06 05:45:45;;;;;;;1.70;1.20;;;23.50;42.30;;;;;;6150552;28;81925;-70
2022/04/06 05:48:45;;;;;;;5.32;2.30;;;23.60;41.90;;;;;;6159175;28;80631;-74
2022/04/06 05:51:46;;;;;;;8.82;2.20;;;23.50;42.50;;;;;;6159599;28;87313;-72
2022/04/06 05:54:47;;;;;;;1.90;1.23;;;23.50;42.20;;;;;;6155677;28;80224;-68
2022/04/06 05:57:47;;;;;;;2.25;1.30;;;23.50;41.80;;;;;;6157757;28;80596;-68
2022/04/06 06:00:47;;;;;;;1.48;1.38;;;23.60;41.90;;;;;;6144958;28;80576;-69
2022/04/06 06:03:49;;;;;;;2.47;1.67;;;23.50;41.50;;;;;;6123789;28;80564;-68
2022/04/06 06:06:49;;;;;;;7.32;1.50;;;23.50;41.40;;;;;;6156080;28;81019;-67
2022/04/06 06:09:50;;;;;;;3.17;1.17;;;23.50;41.80;;;;;;6154613;28;81398;-68
2022/04/06 06:12:50;;;;;;;2.67;1.55;;;23.50;41.50;;;;;;6152609;28;80900;-67
2022/04/06 06:15:51;;;;;;;3.20;1.20;;;23.50;41.50;;;;;;6156990;28;80712;-68
2022/04/06 06:18:51;;;;;;;1.77;1.40;;;23.50;41.10;;;;;;6151638;28;80509;-68
2022/04/06 06:21:52;;;;;;;2.28;1.50;;;23.40;40.90;;;;;;6155940;28;80789;-68
2022/04/06 06:24:52;;;;;;;2.25;1.40;;;23.50;40.90;;;;;;6157493;28;81882;-69
2022/04/06 06:27:53;;;;;;;1.67;1.20;;;23.40;40.90;;;;;;6156661;28;80624;-66
2022/04/06 06:30:53;;;;;;;4.03;1.20;;;23.40;40.90;;;;;;6159530;28;80639;-69
2022/04/06 06:33:54;;;;;;;2.90;1.52;;;23.40;40.90;;;;;;6164746;28;80570;-69
2022/04/06 06:36:54;;;;;;;2.92;1.63;;;23.40;41.10;;;;;;6158538;28;80830;-71
2022/04/06 06:39:55;;;;;;;3.92;1.58;;;23.40;41.00;;;;;;6169851;28;81474;-68
2022/04/06 06:42:55;;;;;;;1.65;1.42;;;23.50;41.40;;;;;;6166949;28;81512;-67
2022/04/06 06:45:56;;;;;;;3.83;1.67;;;23.50;41.00;;;;;;6167253;28;80722;-71
2022/04/06 06:49:02;;;;;;;2.08;1.65;;;23.50;41.00;;;;;;6167147;28;80433;-69
2022/04/06 06:52:03;;;;;;;2.92;1.50;;;23.50;40.80;;;;;;6165172;28;80108;-69
2022/04/06 06:55:03;;;;;;;1.55;1.20;;;23.50;40.90;;;;;;6166886;28;81182;-69
2022/04/06 06:58:04;;;;;;;1.95;1.70;;;23.50;40.60;;;;;;6166982;28;80502;-70
2022/04/06 07:01:04;;;;;;;1.85;1.65;;;23.50;40.50;;;;;;6155296;28;81693;-70
2022/04/06 07:04:07;;;;;;;3.05;1.60;;;23.50;40.70;;;;;;6162631;28;81613;-68
2022/04/06 07:07:07;;;;;;;1.88;1.42;;;23.50;40.70;;;;;;6161534;28;80596;-73
2022/04/06 07:10:08;;;;;;;1.50;1.40;;;23.50;41.10;;;;;;6130144;28;80501;-72
2022/04/06 07:13:11;;;;;;;2.08;1.50;;;23.50;41.10;;;;;;6154396;28;80692;-72
2022/04/06 07:16:14;;;;;;;2.83;1.70;;;23.60;41.00;;;;;;6161783;28;80273;-66
2022/04/06 07:19:15;;;;;;;1.92;1.65;;;23.60;40.90;;;;;;6147497;28;80365;-70
2022/04/06 07:22:15;;;;;;;2.88;1.90;;;23.50;40.90;;;;;;6166049;28;80561;-70
2022/04/06 07:25:16;;;;;;;2.70;1.52;;;23.50;40.70;;;;;;6165569;28;80251;-73
2022/04/06 07:28:16;;;;;;;2.83;1.65;;;23.50;40.70;;;;;;6167189;28;80178;-72
2022/04/06 07:31:17;;;;;;;3.03;1.77;;;23.50;41.00;;;;;;6166096;28;80409;-72
2022/04/06 07:34:18;;;;;;;2.85;1.60;;;23.50;40.90;;;;;;6166454;28;80019;-72
2022/04/06 07:37:18;;;;;;;2.45;1.70;;;23.50;41.10;;;;;;6156438;28;80307;-70
2022/04/06 07:40:19;;;;;;;3.08;1.40;;;23.50;41.30;;;;;;6147907;28;80616;-72
2022/04/06 07:43:20;;;;;;;4.00;1.30;;;23.50;41.10;;;;;;6162477;28;80738;-70
2022/04/06 07:46:20;;;;;;;1.95;1.75;;;23.50;41.30;;;;;;6162051;28;80622;-72
2022/04/06 07:49:21;;;;;;;3.33;1.67;;;23.50;41.30;;;;;;6161945;28;80438;-70
2022/04/06 07:52:22;;;;;;;2.53;1.63;;;23.50;41.30;;;;;;6161533;28;80493;-71
2022/04/06 07:55:22;;;;;;;3.40;1.50;;;23.40;41.30;;;;;;6161367;28;81116;-71
2022/04/06 07:58:24;;;;;;;3.42;1.38;;;23.50;41.30;;;;;;6161507;28;81413;-68
2022/04/06 08:01:24;;;;;;;1.55;1.45;;;23.50;41.40;;;;;;6161085;28;81438;-70
2022/04/06 08:04:25;;;;;;;1.35;1.25;;;23.50;41.50;;;;;;6161704;28;80940;-70
2022/04/06 08:07:25;;;;;;;2.05;1.20;;;23.50;41.50;;;;;;6160956;28;80633;-70
2022/04/06 08:10:30;;;;;;;1.83;1.30;;;23.50;41.50;;;;;;6161004;28;81292;-71
2022/04/06 08:13:30;;;;;;;2.80;1.58;;;23.50;41.50;;;;;;6157093;28;81970;-74
2022/04/06 08:16:31;;;;;;;2.13;1.40;;;23.50;41.60;;;;;;6137090;28;80522;-73
2022/04/06 08:19:31;;;;;;;2.17;1.50;;;23.50;41.60;;;;;;6146667;28;81523;-76
2022/04/06 08:22:32;;;;;;;2.35;1.33;;;23.60;41.70;;;;;;6162181;28;80888;-73
2022/04/06 08:25:33;;;;;;;2.17;1.55;;;23.60;41.50;;;;;;6162351;28;80299;-76
2022/04/06 08:28:33;;;;;;;5.40;1.92;;;23.60;41.50;;;;;;6144012;28;80294;-73
2022/04/06 08:31:34;;;;;;;24.58;12.18;;;23.60;41.20;;;;;;6159674;28;80382;-76
2022/04/06 08:34:34;;;;;;;24.20;10.68;;;23.60;41.40;;;;;;6151149;28;83461;-76
2022/04/06 08:37:35;;;;;;;30.48;13.40;;;23.60;41.20;;;;;;6158606;28;83243;-74
2022/04/06 08:40:35;;;;;;;55.40;24.10;;;23.60;41.50;;;;;;6158275;28;83596;-78
2022/04/06 08:43:37;;;;;;;29.88;14.85;;;23.70;41.60;;;;;;6158049;28;83818;-79
2022/04/06 08:46:38;;;;;;;39.20;15.65;;;23.70;41.30;;;;;;6158755;28;83341;-78
2022/04/06 08:49:38;;;;;;;36.28;14.98;;;23.70;41.60;;;;;;6158330;28;83053;-75
2022/04/06 08:52:39;;;;;;;27.17;13.55;;;23.70;42.10;;;;;;6138607;28;82897;-74
2022/04/06 08:55:39;;;;;;;30.55;14.73;;;23.70;41.60;;;;;;6142203;28;83252;-75
2022/04/06 08:58:40;;;;;;;27.83;13.05;;;23.70;41.80;;;;;;6158240;28;82951;-77
2022/04/06 09:01:40;;;;;;;30.73;13.82;;;23.70;41.50;;;;;;6158241;28;83095;-79
2022/04/06 09:04:41;;;;;;;28.23;12.93;;;23.70;41.40;;;;;;6158616;28;83153;-72
2022/04/06 09:07:41;;;;;;;25.20;11.48;;;23.70;41.40;;;;;;6158367;28;83165;-74
2022/04/06 09:10:42;;;;;;;26.25;12.20;;;23.70;41.50;;;;;;6135834;28;83145;-66
2022/04/06 09:13:43;;;;;;;27.52;12.52;;;23.60;41.60;;;;;;6115409;28;84087;-68
2022/04/06 09:16:43;;;;;;;21.38;10.13;;;23.60;41.50;;;;;;6132124;28;84071;-68
2022/04/06 09:19:44;;;;;;;22.45;11.10;;;23.60;41.40;;;;;;6132648;28;82960;-67
2022/04/06 09:22:44;;;;;;;24.90;9.73;;;23.60;41.40;;;;;;6132871;28;84263;-75
2022/04/06 09:25:45;;;;;;;20.58;9.23;;;23.60;41.60;;;;;;6136198;28;82949;-77
2022/04/06 09:28:45;;;;;;;22.77;9.40;;;23.60;42.00;;;;;;6147203;28;81014;-80
2022/04/06 09:31:48;;;;;;;23.17;9.80;;;23.60;41.80;;;;;;6142792;28;80684;-76
2022/04/06 09:34:49;;;;;;;22.67;8.20;;;23.50;41.90;;;;;;6156025;28;82124;-77
2022/04/06 09:37:49;;;;;;;19.65;8.90;;;23.60;41.90;;;;;;6157601;28;80811;-75
2022/04/06 09:40:51;;;;;;;17.30;8.45;;;23.60;41.90;;;;;;6155165;28;80436;-76
2022/04/06 09:43:52;;;;;;;18.73;8.70;;;23.50;42.40;;;;;;6156975;28;80573;-74
2022/04/06 09:50:12;;;;;;;18.58;8.20;;;23.50;42.30;;;;;;6156746;28;80581;-74
2022/04/06 09:53:13;;;;;;;18.98;7.95;;;23.50;42.20;;;;;;6152347;28;80653;-74
2022/04/06 09:56:13;;;;;;;13.55;6.97;;;23.50;42.00;;;;;;6136030;28;82851;-74
2022/04/06 09:59:14;;;;;;;18.48;7.50;;;23.50;41.90;;;;;;6135893;28;80460;-75
2022/04/06 10:02:14;;;;;;;14.10;6.80;;;23.50;41.80;;;;;;6139741;28;80468;-74
2022/04/06 10:05:15;;;;;;;12.65;5.82;;;23.50;41.70;;;;;;6159675;28;80614;-74
2022/04/06 10:08:17;;;;;;;10.95;5.63;;;23.50;41.70;;;;;;6146809;28;80801;-73
2022/04/06 10:11:18;;;;;;;10.07;5.32;;;23.50;41.50;;;;;;6158931;28;80405;-74
2022/04/06 10:14:19;;;;;;;12.77;5.00;;;23.50;41.20;;;;;;6139756;28;80465;-75
2022/04/06 10:17:19;;;;;;;9.13;5.13;;;23.50;41.20;;;;;;6118128;28;81050;-75
2022/04/06 10:20:20;;;;;;;9.38;4.88;;;23.60;41.10;;;;;;6118940;28;80121;-76
2022/04/06 10:23:21;;;;;;;9.35;4.97;;;23.60;40.90;;;;;;6153083;28;81428;-75
2022/04/06 10:26:21;;;;;;;9.35;4.55;;;23.60;40.90;;;;;;6161458;28;80423;-74
2022/04/06 10:29:22;;;;;;;7.72;4.25;;;23.60;40.70;;;;;;6154983;28;80393;-74
2022/04/06 10:32:22;;;;;;;10.48;4.60;;;23.60;40.70;;;;;;6136629;28;80611;-74
2022/04/06 10:35:23;;;;;;;7.63;4.43;;;23.70;40.70;;;;;;6160085;28;80840;-75
2022/04/06 10:38:23;;;;;;;7.75;3.50;;;23.70;40.60;;;;;;6151664;28;81060;-72
2022/04/06 10:41:24;;;;;;;7.55;4.20;;;23.70;40.60;;;;;;6136801;28;80415;-72
2022/04/06 10:44:24;;;;;;;7.18;4.15;;;23.70;40.50;;;;;;6152239;28;80475;-72
2022/04/06 10:47:25;;;;;;;6.25;3.88;;;23.70;40.50;;;;;;6159598;28;81863;-73
2022/04/06 10:50:25;;;;;;;8.02;3.70;;;23.70;40.40;;;;;;6135752;28;80618;-72
2022/04/06 10:53:26;;;;;;;6.50;3.85;;;23.80;40.40;;;;;;6158651;28;80416;-73
2022/04/06 10:56:26;;;;;;;7.18;3.40;;;23.80;40.40;;;;;;6177350;28;80410;-68
2022/04/06 10:59:28;;;;;;;7.38;3.42;;;23.80;40.40;;;;;;6160510;28;79989;-76
2022/04/06 11:02:28;;;;;;;8.50;4.03;;;23.80;40.50;;;;;;6158903;28;81728;-78
2022/04/06 11:05:29;;;;;;;6.72;3.42;;;23.80;40.90;;;;;;6140359;28;81761;-74
2022/04/06 11:11:56;;;;;;;7.63;3.80;;;23.80;40.60;;;;;;6126199;28;84760;-74
2022/04/06 11:14:57;;;;;;;4.60;3.08;;;23.90;40.50;;;;;;6161150;28;80496;-73
2022/04/06 11:17:57;;;;;;;7.13;3.92;;;23.90;40.50;;;;;;6156054;28;80308;-75
2022/04/06 11:20:58;;;;;;;5.07;3.10;;;23.90;40.40;;;;;;6155960;28;80430;-80
2022/04/06 11:23:58;;;;;;;6.30;3.63;;;23.90;40.30;;;;;;6163395;28;80267;-77
2022/04/06 11:26:59;;;;;;;6.55;3.50;;;23.90;40.30;;;;;;6145407;28;81974;-74
2022/04/06 11:29:59;;;;;;;9.68;3.53;;;23.90;40.30;;;;;;6162371;28;80640;-74
2022/04/06 11:33:00;;;;;;;6.40;3.40;;;24.00;40.30;;;;;;6162751;28;81354;-74
2022/04/06 11:36:00;;;;;;;4.25;2.92;;;24.10;40.30;;;;;;6159458;28;80129;-72
2022/04/06 11:39:01;;;;;;;5.57;3.30;;;24.10;40.40;;;;;;6162000;28;79997;-74
2022/04/06 11:42:02;;;;;;;4.25;2.75;;;24.10;40.30;;;;;;6162882;28;80311;-73
2022/04/06 11:45:02;;;;;;;4.53;3.13;;;24.10;40.40;;;;;;6162212;28;80294;-73
2022/04/06 11:48:03;;;;;;;4.43;2.88;;;24.10;40.40;;;;;;6164882;28;80387;-74
2022/04/06 11:51:03;;;;;;;4.78;3.00;;;24.20;40.50;;;;;;6164397;28;80555;-75
2022/04/06 11:54:04;;;;;;;5.65;2.97;;;24.20;40.40;;;;;;6162178;28;80825;-72
2022/04/06 11:57:04;;;;;;;5.40;2.75;;;24.20;40.50;;;;;;6144643;28;81091;-76
2022/04/06 12:00:05;;;;;;;5.15;2.78;;;24.10;40.40;;;;;;6142587;28;83655;-75
2022/04/06 12:03:08;;;;;;;5.22;2.72;;;24.20;40.40;;;;;;6161897;28;80404;-76
2022/04/06 12:06:12;;;;;;;4.75;2.30;;;24.10;40.30;;;;;;6161389;28;81412;-76
2022/04/06 12:09:13;;;;;;;4.38;2.40;;;24.20;40.80;;;;;;6161902;28;80825;-73
2022/04/06 12:12:13;;;;;;;3.88;2.15;;;24.20;40.40;;;;;;6161770;28;80472;-72
2022/04/06 12:15:14;;;;;;;13.38;4.20;;;24.20;41.20;;;;;;6140755;28;81718;-77
2022/04/06 12:18:14;;;;;;;11.68;4.45;;;24.30;42.40;;;;;;6160945;28;80596;-73
2022/04/06 12:21:15;;;;;;;9.75;3.72;;;24.30;42.50;;;;;;6155482;28;80461;-76
2022/04/06 12:24:17;;;;;;;15.18;3.78;;;24.20;41.90;;;;;;6160864;28;80864;-77
2022/04/06 12:27:17;;;;;;;8.32;3.22;;;24.20;41.20;;;;;;6162078;28;80885;-76
2022/04/06 12:30:18;;;;;;;15.55;4.18;;;24.10;41.20;;;;;;6143982;28;80304;-77
2022/04/06 12:33:18;;;;;;;10.55;4.43;;;24.20;42.00;;;;;;6141321;28;80897;-75
2022/04/06 12:36:19;;;;;;;9.85;3.83;;;24.20;41.80;;;;;;6152694;28;80444;-78
2022/04/06 12:39:20;;;;;;;6.90;3.63;;;24.30;41.70;;;;;;6158338;28;80424;-74
2022/04/06 12:42:21;;;;;;;13.07;3.83;;;24.20;41.50;;;;;;6159555;28;81710;-75
2022/04/06 12:45:21;;;;;;;9.10;3.67;;;24.20;41.40;;;;;;6160047;28;81490;-81
2022/04/06 12:48:21;;;;;;;7.25;4.03;;;24.20;41.50;;;;;;6156104;28;80920;-75
2022/04/06 12:51:22;;;;;;;10.98;3.50;;;24.20;41.50;;;;;;6158113;28;80522;-74
2022/04/06 12:54:23;;;;;;;8.65;3.60;;;24.10;41.60;;;;;;6160733;28;80827;-73
2022/04/06 12:57:24;;;;;;;7.63;3.38;;;24.10;41.60;;;;;;6156164;28;80253;-75
2022/04/06 13:00:27;;;;;;;5.82;3.33;;;24.10;41.50;;;;;;6154950;28;81034;-74
2022/04/06 13:03:27;;;;;;;5.30;3.40;;;24.10;41.80;;;;;;6158130;28;81293;-73
2022/04/06 13:06:28;;;;;;;13.18;3.83;;;24.10;41.60;;;;;;6160068;28;80307;-74
2022/04/06 13:09:28;;;;;;;8.43;3.28;;;24.10;41.50;;;;;;6142399;28;81120;-73
2022/04/06 13:12:29;;;;;;;8.85;3.08;;;24.10;41.50;;;;;;6142330;28;80339;-73
2022/04/06 13:15:30;;;;;;;5.22;2.72;;;24.10;41.40;;;;;;6160385;28;80639;-75
2022/04/06 13:18:30;;;;;;;6.43;3.05;;;24.10;41.40;;;;;;6136176;28;81458;-77
2022/04/06 13:21:33;;;;;;;7.18;2.78;;;24.10;42.00;;;;;;6135977;28;80796;-73
2022/04/06 13:24:34;;;;;;;8.00;3.17;;;24.10;41.10;;;;;;6140836;28;80379;-77
2022/04/06 13:27:34;;;;;;;4.20;2.28;;;24.10;40.90;;;;;;6160823;28;80302;-75
2022/04/06 13:30:35;;;;;;;4.35;2.50;;;24.10;41.00;;;;;;6160144;28;80358;-73
2022/04/06 13:33:35;;;;;;;4.60;2.78;;;24.10;41.10;;;;;;6161845;28;80961;-80
2022/04/06 13:36:36;;;;;;;4.07;2.47;;;24.10;41.00;;;;;;6161641;28;80411;-76
2022/04/06 13:39:37;;;;;;;3.63;2.47;;;24.10;40.90;;;;;;6161741;28;80636;-67
2022/04/06 13:42:37;;;;;;;6.13;2.70;;;24.00;40.80;;;;;;6161765;28;81536;-78
2022/04/06 13:45:38;;;;;;;5.70;2.50;;;24.00;41.90;;;;;;6160930;28;80624;-78
2022/04/06 13:48:38;;;;;;;5.88;2.53;;;24.00;42.00;;;;;;6144173;28;80149;-77
2022/04/06 13:51:39;;;;;;;92.32;38.95;;;24.00;42.20;;;;;;6161830;28;81331;-80
2022/04/06 13:54:39;;;;;;;178.85;79.93;;;24.00;42.40;;;;;;6158618;28;83382;-75
2022/04/06 13:57:40;;;;;;;239.40;105.88;;;24.10;42.70;;;;;;6140312;28;84003;-77
2022/04/06 14:00:41;;;;;;;207.65;89.75;;;24.10;42.70;;;;;;6153964;28;85132;-76
2022/04/06 14:03:41;;;;;;;175.48;78.60;;;24.10;42.50;;;;;;6158333;28;85247;-73
2022/04/06 14:06:42;;;;;;;228.65;103.07;;;24.10;42.40;;;;;;6160512;28;83520;-73
2022/04/06 14:09:42;;;;;;;386.55;169.43;;;24.10;42.60;;;;;;6154551;28;85661;-74
2022/04/06 14:12:43;;;;;;;330.92;146.63;;;24.00;42.70;;;;;;6140990;28;85693;-79
2022/04/06 14:15:43;;;;;;;288.13;131.85;;;24.10;42.70;;;;;;6125221;28;86145;-75
2022/04/06 14:18:45;;;;;;;281.17;126.05;;;24.10;42.70;;;;;;6140276;28;85614;-78
2022/04/06 14:21:45;;;;;;;239.50;114.22;;;24.10;42.60;;;;;;6142960;28;86460;-76
2022/04/06 14:28:05;;;;;;;215.30;102.72;;;24.10;42.80;;;;;;6130232;28;85792;-79
2022/04/06 14:31:05;;;;;;;199.13;91.43;;;24.20;42.70;;;;;;6146980;28;85818;-73
2022/04/06 14:34:06;;;;;;;179.98;81.95;;;24.20;42.70;;;;;;6150787;28;85894;-76
2022/04/06 14:37:07;;;;;;;169.23;78.22;;;24.20;42.80;;;;;;6149160;28;83017;-72
2022/04/06 14:40:07;;;;;;;146.65;68.50;;;24.20;43.20;;;;;;6130546;28;82792;-75
2022/04/06 14:43:08;;;;;;;138.57;60.85;;;24.20;42.80;;;;;;6136270;28;83404;-76
2022/04/06 14:46:08;;;;;;;122.40;57.78;;;24.30;42.80;;;;;;6145462;28;83960;-80
2022/04/06 14:49:09;;;;;;;123.65;52.95;;;24.20;42.90;;;;;;6160986;28;82934;-73
2022/04/06 14:52:09;;;;;;;126.38;51.97;;;24.20;43.40;;;;;;6152533;28;83348;-79
2022/04/06 14:55:10;;;;;;;104.28;46.28;;;24.20;43.00;;;;;;6159616;28;83367;-80
2022/04/06 14:58:11;;;;;;;109.03;46.58;;;24.20;42.90;;;;;;6160181;28;83206;-73
2022/04/06 15:01:11;;;;;;;96.18;43.30;;;24.20;43.00;;;;;;6160239;28;90978;-75
2022/04/06 15:04:12;;;;;;;85.72;38.80;;;24.20;43.20;;;;;;6161531;28;83023;-74
2022/04/06 15:07:17;;;;;;;86.13;38.28;;;24.20;43.20;;;;;;6160210;28;84039;-70
2022/04/06 15:10:17;;;;;;;78.20;36.10;;;24.20;43.30;;;;;;6156149;28;84306;-73
2022/04/06 15:13:18;;;;;;;77.05;33.72;;;24.10;43.30;;;;;;6160283;28;83136;-70
2022/04/06 15:16:18;;;;;;;68.22;32.30;;;24.20;43.30;;;;;;6159636;28;83393;-69
2022/04/06 15:19:19;;;;;;;64.18;31.30;;;24.10;43.40;;;;;;6160209;28;83459;-70
2022/04/06 15:22:19;;;;;;;65.28;29.73;;;24.20;43.50;;;;;;6136715;28;85244;-74
2022/04/06 15:25:23;;;;;;;68.95;30.90;;;24.10;43.60;;;;;;6155245;28;82993;-72
2022/04/06 15:28:23;;;;;;;66.53;28.05;;;24.20;43.50;;;;;;6159124;28;83147;-72
2022/04/06 15:31:24;;;;;;;61.25;27.35;;;24.10;43.30;;;;;;6157674;28;83648;-69
2022/04/06 15:37:44;;;;;;;55.15;26.13;;;24.10;43.10;;;;;;6159110;28;84584;-75
2022/04/06 15:40:45;;;;;;;61.67;27.60;;;24.10;43.00;;;;;;6159038;28;82918;-76
2022/04/06 15:43:45;;;;;;;55.50;25.80;;;24.10;43.00;;;;;;6159544;28;83928;-74
2022/04/06 15:46:46;;;;;;;48.50;22.95;;;24.00;42.80;;;;;;6159686;28;83543;-73
2022/04/06 15:49:46;;;;;;;55.25;25.25;;;24.00;42.90;;;;;;6154963;28;88486;-73
2022/04/06 15:52:47;;;;;;;50.60;22.27;;;24.00;42.80;;;;;;6134169;28;83107;-74
2022/04/06 15:55:47;;;;;;;55.28;23.33;;;24.00;43.00;;;;;;6143300;28;85314;-72
2022/04/06 15:58:48;;;;;;;50.00;21.70;;;24.00;43.00;;;;;;6135980;28;82999;-76
2022/04/06 16:01:48;;;;;;;43.58;20.30;;;24.00;43.00;;;;;;6159212;28;83116;-73
2022/04/06 16:04:49;;;;;;;44.38;19.92;;;24.00;42.90;;;;;;6159282;28;83233;-76
2022/04/06 16:07:49;;;;;;;47.38;20.98;;;24.00;43.00;;;;;;6159741;28;83169;-73